createdAt,value
2022-12-18T00:00:06.946Z,0.14
2022-12-18T00:03:02.185Z,0.17
2022-12-18T00:05:30.313Z,0.18
2022-12-18T00:07:58.225Z,0.22
2022-12-18T00:10:26.500Z,0.24
2022-12-18T00:12:54.493Z,0.30
2022-12-18T00:15:22.517Z,0.31
2022-12-18T00:17:50.581Z,0.36
2022-12-18T00:20:22.878Z,0.35
2022-12-18T00:22:50.744Z,0.36
2022-12-18T00:25:18.768Z,0.39
2022-12-18T00:27:46.864Z,0.39
2022-12-18T00:30:15.330Z,0.34
2022-12-18T00:32:43.645Z,0.34
2022-12-18T00:35:11.573Z,0.37
2022-12-18T00:37:39.699Z,0.36
2022-12-18T00:40:08.676Z,0.34
2022-12-18T00:42:55.178Z,0.34
2022-12-18T00:45:28.412Z,0.31
2022-12-18T00:47:57.566Z,0.30
2022-12-18T00:50:26.206Z,0.20
2022-12-18T00:52:54.121Z,0.15
2022-12-18T00:55:22.086Z,0.15
2022-12-18T00:57:53.312Z,0.15
2022-12-18T01:00:21.607Z,0.12
2022-12-18T01:02:49.679Z,0.21
2022-12-18T01:05:17.782Z,0.24
2022-12-18T01:07:45.615Z,0.30
2022-12-18T01:10:14.677Z,0.30
2022-12-18T01:12:42.804Z,0.27
2022-12-18T01:15:14.828Z,0.25
2022-12-18T01:17:43.184Z,0.26
2022-12-18T01:20:13.040Z,0.25
2022-12-18T01:22:41.003Z,0.25
2022-12-18T01:25:09.620Z,0.25
2022-12-18T01:27:37.720Z,0.23
2022-12-18T01:30:06.347Z,0.22
2022-12-18T01:32:34.420Z,0.19
2022-12-18T01:35:04.441Z,0.16
2022-12-18T01:37:32.412Z,0.18
2022-12-18T01:40:00.211Z,0.17
2022-12-18T01:42:28.078Z,0.17
2022-12-18T01:45:04.804Z,0.26
2022-12-18T01:47:39.225Z,0.25
2022-12-18T01:50:14.669Z,0.21
2022-12-18T01:52:46.121Z,0.20
2022-12-18T01:55:17.818Z,0.16
2022-12-18T01:57:46.254Z,0.17
2022-12-18T02:00:19.874Z,0.20
2022-12-18T02:02:49.016Z,0.14
2022-12-18T02:05:24.559Z,0.14
2022-12-18T02:08:10.283Z,0.10
2022-12-18T02:10:53.307Z,0.11
2022-12-18T02:13:28.645Z,0.10
2022-12-18T02:16:20.441Z,0.10
2022-12-18T02:18:59.091Z,0.08
2022-12-18T02:21:46.302Z,0.09
2022-12-18T02:24:35.868Z,0.15
2022-12-18T02:27:08.209Z,0.18
2022-12-18T02:29:46.294Z,0.16
2022-12-18T02:32:25.557Z,0.12
2022-12-18T02:34:57.530Z,0.09
2022-12-18T02:37:28.447Z,0.09
2022-12-18T02:39:59.448Z,0.09
2022-12-18T02:42:29.040Z,0.04
2022-12-18T02:44:57.349Z,-0.02
2022-12-18T02:47:32.103Z,-0.02
2022-12-18T02:50:03.561Z,-0.09
2022-12-18T02:52:38.017Z,-0.14
2022-12-18T02:55:48.892Z,-0.18
2022-12-18T02:58:45.744Z,-0.24
2022-12-18T03:01:29.498Z,-0.26
2022-12-18T03:04:14.443Z,-0.23
2022-12-18T03:06:50.630Z,-0.22
2022-12-18T03:09:43.165Z,-0.21
2022-12-18T03:12:28.936Z,-0.20
2022-12-18T03:15:16.002Z,-0.21
2022-12-18T03:18:03.823Z,-0.22
2022-12-18T03:20:35.576Z,-0.20
2022-12-18T03:23:16.845Z,-0.27
2022-12-18T03:25:50.811Z,-0.27
2022-12-18T03:28:22.983Z,-0.28
2022-12-18T03:30:59.242Z,-0.30
2022-12-18T03:33:33.915Z,-0.29
2022-12-18T03:36:02.399Z,-0.30
2022-12-18T03:38:30.312Z,-0.34
2022-12-18T03:41:08.511Z,-0.38
2022-12-18T03:44:05.233Z,-0.35
2022-12-18T03:46:48.593Z,-0.31
2022-12-18T03:50:15.873Z,-0.32
2022-12-18T03:53:11.798Z,-0.28
2022-12-18T03:55:41.413Z,-0.34
2022-12-18T03:58:14.220Z,-0.40
2022-12-18T04:00:57.292Z,-0.43
2022-12-18T04:03:27.404Z,-0.51
2022-12-18T04:05:57.648Z,-0.52
2022-12-18T04:08:26.954Z,-0.61
2022-12-18T04:11:03.857Z,-0.63
2022-12-18T04:13:37.753Z,-0.64
2022-12-18T04:16:10.504Z,-0.68
2022-12-18T04:18:40.633Z,-0.69
2022-12-18T04:21:09.730Z,-0.70
2022-12-18T04:23:38.510Z,-0.75
2022-12-18T04:26:06.792Z,-0.78
2022-12-18T04:28:44.495Z,-0.76
2022-12-18T04:31:13.295Z,-0.77
2022-12-18T04:33:41.660Z,-0.78
2022-12-18T04:36:11.059Z,-0.70
2022-12-18T04:38:39.751Z,-0.70
2022-12-18T04:41:10.220Z,-0.72
2022-12-18T04:43:39.054Z,-0.71
2022-12-18T04:46:09.365Z,-0.67
2022-12-18T04:48:37.979Z,-0.68
2022-12-18T04:51:06.975Z,-0.73
2022-12-18T04:53:34.931Z,-0.75
2022-12-18T04:56:14.775Z,-0.78
2022-12-18T04:58:44.302Z,-0.80
2022-12-18T05:01:14.612Z,-0.81
2022-12-18T05:03:44.111Z,-0.82
2022-12-18T05:06:12.370Z,-0.84
2022-12-18T05:08:40.657Z,-0.82
2022-12-18T05:11:12.034Z,-0.81
2022-12-18T05:13:40.386Z,-0.79
2022-12-18T05:16:09.404Z,-0.72
2022-12-18T05:18:38.001Z,-0.70
2022-12-18T05:21:06.702Z,-0.71
2022-12-18T05:23:34.716Z,-0.74
2022-12-18T05:26:05.953Z,-0.76
2022-12-18T05:28:35.581Z,-0.80
2022-12-18T05:31:05.136Z,-0.81
2022-12-18T05:33:35.483Z,-0.84
2022-12-18T05:36:05.972Z,-0.88
2022-12-18T05:38:36.526Z,-0.91
2022-12-18T05:41:04.874Z,-0.92
2022-12-18T05:43:34.718Z,-0.95
2022-12-18T05:46:07.527Z,-0.90
2022-12-18T05:48:36.013Z,-0.94
2022-12-18T05:51:15.536Z,-0.96
2022-12-18T05:53:44.234Z,-0.95
2022-12-18T05:56:15.854Z,-0.94
2022-12-18T05:58:44.726Z,-0.91
2022-12-18T06:01:16.043Z,-0.85
2022-12-18T06:03:44.394Z,-0.84
2022-12-18T06:06:18.723Z,-0.89
2022-12-18T06:08:47.630Z,-0.92
2022-12-18T06:11:19.682Z,-0.95
2022-12-18T06:13:47.954Z,-0.98
2022-12-18T06:16:15.865Z,-0.97
2022-12-18T06:18:44.439Z,-1.04
2022-12-18T06:21:12.480Z,-1.08
2022-12-18T06:23:40.833Z,-1.06
2022-12-18T06:26:12.004Z,-1.08
2022-12-18T06:28:40.269Z,-1.08
2022-12-18T06:31:08.780Z,-1.10
2022-12-18T06:33:37.696Z,-1.08
2022-12-18T06:36:11.587Z,-1.08
2022-12-18T06:38:43.648Z,-1.17
2022-12-18T06:41:15.286Z,-1.18
2022-12-18T06:43:44.156Z,-1.14
2022-12-18T06:46:12.898Z,-1.17
2022-12-18T06:48:41.533Z,-1.26
2022-12-18T06:51:09.591Z,-1.34
2022-12-18T06:53:37.872Z,-1.41
2022-12-18T06:56:10.534Z,-1.48
2022-12-18T06:58:40.238Z,-1.50
2022-12-18T07:01:11.468Z,-1.46
2022-12-18T07:03:43.369Z,-1.47
2022-12-18T07:06:20.656Z,-1.45
2022-12-18T07:08:49.787Z,-1.44
2022-12-18T07:11:19.012Z,-1.32
2022-12-18T07:13:47.740Z,-1.31
2022-12-18T07:16:24.225Z,-1.26
2022-12-18T07:19:13.716Z,-1.22
2022-12-18T07:21:41.686Z,-1.15
2022-12-18T07:24:09.649Z,-1.11
2022-12-18T07:26:37.751Z,-1.09
2022-12-18T07:29:05.671Z,-1.07
2022-12-18T07:31:33.615Z,-1.04
2022-12-18T07:34:01.604Z,-0.98
2022-12-18T07:36:29.680Z,-0.91
2022-12-18T07:38:57.605Z,-0.89
2022-12-18T07:41:25.486Z,-0.88
2022-12-18T07:43:53.452Z,-0.85
2022-12-18T07:46:21.511Z,-0.86
2022-12-18T07:48:50.433Z,-0.88
2022-12-18T07:51:19.637Z,-0.85
2022-12-18T07:53:51.164Z,-0.80
2022-12-18T07:56:27.837Z,-0.80
2022-12-18T07:58:57.565Z,-0.79
2022-12-18T08:01:26.437Z,-0.80
2022-12-18T08:03:54.650Z,-0.76
2022-12-18T08:06:24.364Z,-0.71
2022-12-18T08:08:54.581Z,-0.66
2022-12-18T08:11:24.208Z,-0.64
2022-12-18T08:13:52.368Z,-0.59
2022-12-18T08:16:20.951Z,-0.54
2022-12-18T08:18:49.575Z,-0.53
2022-12-18T08:21:24.820Z,-0.53
2022-12-18T08:23:55.091Z,-0.50
2022-12-18T08:26:25.367Z,-0.47
2022-12-18T08:28:55.368Z,-0.49
2022-12-18T08:31:24.879Z,-0.47
2022-12-18T08:33:54.471Z,-0.48
2022-12-18T08:36:24.561Z,-0.46
2022-12-18T08:38:53.554Z,-0.42
2022-12-18T08:41:21.753Z,-0.39
2022-12-18T08:44:08.944Z,-0.37
2022-12-18T08:46:39.921Z,-0.36
2022-12-18T08:49:08.516Z,-0.32
2022-12-18T08:51:37.091Z,-0.30
2022-12-18T08:54:06.640Z,-0.27
2022-12-18T08:56:45.939Z,-0.26
2022-12-18T08:59:20.776Z,-0.24
2022-12-18T09:01:49.410Z,-0.21
2022-12-18T09:04:18.109Z,-0.24
2022-12-18T09:06:45.998Z,-0.20
2022-12-18T09:09:14.084Z,-0.17
2022-12-18T09:11:42.264Z,-0.14
2022-12-18T09:14:11.073Z,-0.06
2022-12-18T09:16:39.177Z,-0.02
2022-12-18T09:19:11.140Z,-0.03
2022-12-18T09:21:47.760Z,0.01
2022-12-18T09:24:17.365Z,0.02
2022-12-18T09:26:47.998Z,0.02
2022-12-18T09:29:18.695Z,0.02
2022-12-18T09:31:47.639Z,0.06
2022-12-18T09:34:16.070Z,0.08
2022-12-18T09:36:44.334Z,0.02
2022-12-18T09:39:12.213Z,-0.04
2022-12-18T09:41:45.299Z,-0.01
2022-12-18T09:44:38.889Z,0.05
2022-12-18T09:50:28.364Z,0.12
2022-12-18T09:53:00.703Z,0.13
2022-12-18T09:55:40.753Z,0.17
2022-12-18T09:58:11.461Z,0.22
2022-12-18T10:00:39.541Z,0.26
2022-12-18T10:03:13.596Z,0.26
2022-12-18T10:06:14.739Z,0.27
2022-12-18T10:09:05.045Z,0.20
2022-12-18T10:11:45.556Z,0.19
2022-12-18T10:14:18.467Z,0.17
2022-12-18T10:17:05.671Z,0.18
2022-12-18T10:19:42.196Z,0.22
2022-12-18T10:22:15.936Z,0.26
2022-12-18T10:24:59.252Z,0.27
2022-12-18T10:27:29.765Z,0.27
2022-12-18T10:29:58.577Z,0.29
2022-12-18T10:32:30.197Z,0.31
2022-12-18T10:35:00.892Z,0.33
2022-12-18T10:37:31.018Z,0.35
2022-12-18T10:40:21.996Z,0.33
2022-12-18T10:43:12.874Z,0.30
2022-12-18T10:45:41.646Z,0.29
2022-12-18T10:48:22.064Z,0.32
2022-12-18T10:53:43.866Z,0.40
2022-12-18T10:56:13.389Z,0.43
2022-12-18T10:58:41.903Z,0.41
2022-12-18T11:01:14.478Z,0.39
2022-12-18T11:03:45.420Z,0.35
2022-12-18T11:06:15.840Z,0.32
2022-12-18T11:08:45.626Z,0.30
2022-12-18T11:11:25.263Z,0.33
2022-12-18T11:14:22.777Z,0.35
2022-12-18T11:19:42.323Z,0.43
2022-12-18T11:22:29.763Z,0.48
2022-12-18T11:27:53.671Z,0.54
2022-12-18T11:30:24.933Z,0.49
2022-12-18T11:32:58.778Z,0.45
2022-12-18T11:35:51.801Z,0.45
2022-12-18T11:38:35.548Z,0.49
2022-12-18T11:41:07.260Z,0.46
2022-12-18T11:43:42.335Z,0.47
2022-12-18T11:46:19.299Z,0.48
2022-12-18T11:48:59.455Z,0.56
2022-12-18T11:51:36.231Z,0.56
2022-12-18T11:54:14.834Z,0.55
2022-12-18T11:56:50.935Z,0.53
2022-12-18T11:59:26.830Z,0.52
2022-12-18T12:02:22.469Z,0.56
2022-12-18T12:05:39.449Z,0.62
2022-12-18T12:08:22.808Z,0.67
2022-12-18T12:11:08.961Z,0.69
2022-12-18T12:13:44.919Z,0.72
2022-12-18T12:16:12.862Z,0.71
2022-12-18T12:18:57.856Z,0.71
2022-12-18T12:21:43.639Z,0.72
2022-12-18T12:24:39.443Z,0.70
2022-12-18T12:27:29.464Z,0.67
2022-12-18T12:30:16.985Z,0.64
2022-12-18T12:33:09.889Z,0.64
2022-12-18T12:36:16.114Z,0.68
2022-12-18T12:38:53.048Z,0.71
2022-12-18T12:41:47.401Z,0.74
2022-12-18T12:44:24.971Z,0.76
2022-12-18T12:46:56.257Z,0.78
2022-12-18T12:49:28.938Z,0.83
2022-12-18T12:52:11.753Z,0.84
2022-12-18T12:54:40.080Z,0.84
2022-12-18T12:57:14.979Z,0.83
2022-12-18T13:00:15.627Z,0.81
2022-12-18T13:03:00.865Z,0.81
2022-12-18T13:05:32.831Z,0.83
2022-12-18T13:08:04.331Z,0.78
2022-12-18T13:10:40.699Z,0.73
2022-12-18T13:13:17.222Z,0.66
2022-12-18T13:16:11.730Z,0.67
2022-12-18T13:18:40.114Z,0.66
2022-12-18T13:21:24.999Z,0.67
2022-12-18T13:23:53.012Z,0.69
2022-12-18T13:26:27.926Z,0.74
2022-12-18T13:28:59.397Z,0.78
2022-12-18T13:31:43.539Z,0.77
2022-12-18T13:34:27.737Z,0.77
2022-12-18T13:37:18.869Z,0.79
2022-12-18T13:39:47.136Z,0.97
2022-12-18T13:42:35.497Z,1.05
2022-12-18T13:45:43.035Z,1.04
2022-12-18T13:48:39.180Z,0.99
2022-12-18T13:51:10.831Z,0.88
2022-12-18T13:53:52.546Z,0.82
2022-12-18T13:56:26.966Z,0.77
2022-12-18T13:59:17.642Z,0.69
2022-12-18T14:01:51.543Z,0.63
2022-12-18T14:04:24.823Z,0.61
2022-12-18T14:06:59.875Z,0.60
2022-12-18T14:09:32.269Z,0.55
2022-12-18T14:12:19.694Z,0.51
2022-12-18T14:14:55.001Z,0.48
2022-12-18T14:17:24.190Z,0.46
2022-12-18T14:19:52.832Z,0.44
2022-12-18T14:22:31.059Z,0.41
2022-12-18T14:25:14.029Z,0.37
2022-12-18T14:27:50.696Z,0.37
2022-12-18T14:30:28.096Z,0.37
2022-12-18T14:33:18.714Z,0.39
2022-12-18T14:36:04.510Z,0.41
2022-12-18T14:38:42.773Z,0.39
2022-12-18T14:41:16.390Z,0.35
2022-12-18T14:43:48.198Z,0.33
2022-12-18T14:46:39.275Z,0.26
2022-12-18T14:49:30.301Z,0.19
2022-12-18T14:52:07.246Z,0.15
2022-12-18T14:54:38.295Z,0.10
2022-12-18T14:57:21.793Z,0.06
2022-12-18T14:59:50.816Z,0.01
2022-12-18T15:02:27.893Z,-0.06
2022-12-18T15:05:18.131Z,-0.07
2022-12-18T15:07:53.528Z,-0.10
2022-12-18T15:10:31.071Z,-0.13
2022-12-18T15:13:02.507Z,-0.10
2022-12-18T15:15:36.772Z,-0.07
2022-12-18T15:18:08.924Z,-0.07
2022-12-18T15:20:43.996Z,-0.11
2022-12-18T15:23:47.091Z,-0.15
2022-12-18T15:26:17.775Z,-0.19
2022-12-18T15:28:49.012Z,-0.22
2022-12-18T15:31:18.105Z,-0.27
2022-12-18T15:34:04.060Z,-0.30
2022-12-18T15:36:31.993Z,-0.29
2022-12-18T15:39:04.779Z,-0.30
2022-12-18T15:41:36.208Z,-0.31
2022-12-18T15:44:26.457Z,-0.32
2022-12-18T15:46:58.301Z,-0.32
2022-12-18T15:49:26.243Z,-0.33
2022-12-18T15:51:57.845Z,-0.33
2022-12-18T15:54:44.378Z,-0.30
2022-12-18T15:57:24.954Z,-0.28
2022-12-18T15:59:57.392Z,-0.25
2022-12-18T16:02:26.069Z,-0.25
2022-12-18T16:04:55.132Z,-0.22
2022-12-18T16:07:24.998Z,-0.16
2022-12-18T16:09:54.092Z,-0.16
2022-12-18T16:12:26.531Z,-0.20
2022-12-18T16:14:54.284Z,-0.22
2022-12-18T16:17:22.227Z,-0.24
2022-12-18T16:19:50.100Z,-0.29
2022-12-18T16:22:27.773Z,-0.30
2022-12-18T16:24:57.310Z,-0.35
2022-12-18T16:27:26.033Z,-0.35
2022-12-18T16:29:54.003Z,-0.37
2022-12-18T16:32:23.665Z,-0.42
2022-12-18T16:34:52.771Z,-0.44
2022-12-18T16:37:20.703Z,-0.45
2022-12-18T16:39:48.563Z,-0.45
2022-12-18T16:42:20.307Z,-0.47
2022-12-18T16:44:50.188Z,-0.45
2022-12-18T16:47:19.188Z,-0.43
2022-12-18T16:49:47.553Z,-0.42
2022-12-18T16:52:15.911Z,-0.44
2022-12-18T16:54:46.001Z,-0.45
2022-12-18T16:57:16.602Z,-0.46
2022-12-18T16:59:44.977Z,-0.42
2022-12-18T17:02:21.798Z,-0.45
2022-12-18T17:04:54.952Z,-0.54
2022-12-18T17:07:24.251Z,-0.57
2022-12-18T17:09:54.061Z,-0.65
2022-12-18T17:12:22.508Z,-0.72
2022-12-18T17:14:50.705Z,-0.78
2022-12-18T17:17:22.342Z,-0.79
2022-12-18T17:19:52.527Z,-0.83
2022-12-18T17:22:23.299Z,-0.84
2022-12-18T17:24:51.282Z,-0.87
2022-12-18T17:27:19.348Z,-0.85
2022-12-18T17:29:48.852Z,-0.88
2022-12-18T17:32:18.466Z,-0.89
2022-12-18T17:34:46.763Z,-0.90
2022-12-18T17:37:15.783Z,-0.95
2022-12-18T17:39:43.836Z,-0.95
2022-12-18T17:42:14.892Z,-0.92
2022-12-18T17:44:44.859Z,-0.94
2022-12-18T17:47:13.963Z,-0.96
2022-12-18T17:49:41.913Z,-0.96
2022-12-18T17:52:10.309Z,-0.97
2022-12-18T17:54:41.396Z,-0.98
2022-12-18T17:57:09.651Z,-0.99
2022-12-18T17:59:37.559Z,-1.03
2022-12-18T18:02:05.842Z,-1.10
2022-12-18T18:04:34.591Z,-1.19
2022-12-18T18:07:03.160Z,-1.26
2022-12-18T18:09:32.492Z,-1.33
2022-12-18T18:12:19.021Z,-1.34
2022-12-18T18:14:47.064Z,-1.38
2022-12-18T18:17:15.040Z,-1.37
2022-12-18T18:19:44.185Z,-1.36
2022-12-18T18:22:16.935Z,-1.35
2022-12-18T18:24:46.798Z,-1.35
2022-12-18T18:27:15.138Z,-1.32
2022-12-18T18:29:43.247Z,-1.33
2022-12-18T18:32:11.158Z,-1.34
2022-12-18T18:34:40.865Z,-1.35
2022-12-18T18:37:11.856Z,-1.39
2022-12-18T18:39:39.844Z,-1.45
2022-12-18T18:42:08.432Z,-1.49
2022-12-18T18:44:39.144Z,-1.51
2022-12-18T18:47:09.608Z,-1.49
2022-12-18T18:49:37.644Z,-1.47
2022-12-18T18:52:07.269Z,-1.45
2022-12-18T18:54:35.334Z,-1.44
2022-12-18T18:57:19.911Z,-1.38
2022-12-18T18:59:49.178Z,-1.34
2022-12-18T19:02:17.926Z,-1.27
2022-12-18T19:04:46.985Z,-1.21
2022-12-18T19:07:25.607Z,-1.24
2022-12-18T19:10:04.580Z,-1.25
2022-12-18T19:12:53.163Z,-1.21
2022-12-18T19:15:21.992Z,-1.27
2022-12-18T19:17:50.252Z,-1.27
2022-12-18T19:20:18.355Z,-1.31
2022-12-18T19:22:52.208Z,-1.29
2022-12-18T19:25:39.993Z,-1.30
2022-12-18T19:28:10.014Z,-1.28
2022-12-18T19:30:52.445Z,-1.24
2022-12-18T19:33:42.460Z,-1.27
2022-12-18T19:36:19.620Z,-1.33
2022-12-18T19:38:49.307Z,-1.38
2022-12-18T19:41:18.825Z,-1.48
2022-12-18T19:43:47.901Z,-1.55
2022-12-18T19:46:18.400Z,-1.52
2022-12-18T19:48:47.034Z,-1.45
2022-12-18T19:51:18.814Z,-1.32
2022-12-18T19:53:47.015Z,-1.26
2022-12-18T19:56:18.411Z,-1.22
2022-12-18T19:58:46.659Z,-1.20
2022-12-18T20:01:16.748Z,-1.16
2022-12-18T20:03:51.581Z,-1.15
2022-12-18T20:06:27.139Z,-1.19
2022-12-18T20:08:59.968Z,-1.23
2022-12-18T20:11:41.590Z,-1.30
2022-12-18T20:14:11.944Z,-1.38
2022-12-18T20:16:40.935Z,-1.43
2022-12-18T20:19:10.641Z,-1.58
2022-12-18T20:21:38.678Z,-1.68
2022-12-18T20:24:08.341Z,-1.82
2022-12-18T20:26:36.424Z,-1.88
2022-12-18T20:29:05.092Z,-1.92
2022-12-18T20:31:32.997Z,-1.92
2022-12-18T20:34:02.788Z,-2.01
2022-12-18T20:36:34.282Z,-2.03
2022-12-18T20:39:07.253Z,-2.00
2022-12-18T20:41:38.734Z,-2.01
2022-12-18T20:44:21.425Z,-1.98
2022-12-18T20:46:57.224Z,-2.02
2022-12-18T20:49:26.883Z,-2.07
2022-12-18T20:51:57.268Z,-2.07
2022-12-18T20:54:27.543Z,-2.08
2022-12-18T20:56:56.876Z,-2.10
2022-12-18T20:59:25.929Z,-2.10
2022-12-18T21:01:54.412Z,-2.08
2022-12-18T21:04:24.227Z,-2.06
2022-12-18T21:07:00.799Z,-2.03
2022-12-18T21:09:36.945Z,-2.01
2022-12-18T21:12:40.464Z,-2.00
2022-12-18T21:15:16.803Z,-2.00
2022-12-18T21:17:45.430Z,-1.95
2022-12-18T21:20:17.917Z,-1.93
2022-12-18T21:22:47.292Z,-1.88
2022-12-18T21:25:15.404Z,-1.87
2022-12-18T21:27:43.357Z,-1.93
2022-12-18T21:30:12.152Z,-1.99
2022-12-18T21:32:40.947Z,-2.11
2022-12-18T21:35:09.661Z,-2.08
2022-12-18T21:37:37.493Z,-2.09
2022-12-18T21:40:06.251Z,-2.14
2022-12-18T21:42:52.618Z,-2.14
2022-12-18T21:45:20.786Z,-2.14
2022-12-18T21:47:48.875Z,-2.11
2022-12-18T21:50:16.928Z,-2.11
2022-12-18T21:52:44.854Z,-2.15
2022-12-18T21:55:12.945Z,-2.19
2022-12-18T21:57:41.148Z,-2.21
2022-12-18T22:00:18.452Z,-2.19
2022-12-18T22:03:07.376Z,-2.14
2022-12-18T22:05:38.228Z,-2.14
2022-12-18T22:08:06.938Z,-2.11
2022-12-18T22:10:36.075Z,-2.17
2022-12-18T22:13:05.252Z,-2.13
2022-12-18T22:15:33.132Z,-2.08
2022-12-18T22:18:10.598Z,-2.02
2022-12-18T22:20:39.446Z,-2.04
2022-12-18T22:23:07.596Z,-2.14
2022-12-18T22:25:38.920Z,-2.23
2022-12-18T22:28:26.835Z,-2.27
2022-12-18T22:30:59.515Z,-2.23
2022-12-18T22:33:28.520Z,-2.30
2022-12-18T22:35:56.755Z,-2.38
2022-12-18T22:38:24.603Z,-2.40
2022-12-18T22:40:52.638Z,-2.41
2022-12-18T22:43:20.607Z,-2.39
2022-12-18T22:45:49.113Z,-2.36
2022-12-18T22:48:17.426Z,-2.34
2022-12-18T22:50:45.255Z,-2.33
2022-12-18T22:53:13.147Z,-2.39
2022-12-18T22:55:40.964Z,-2.36
2022-12-18T22:58:08.776Z,-2.41
2022-12-18T23:00:36.647Z,-2.40
2022-12-18T23:03:04.958Z,-2.38
2022-12-18T23:05:35.461Z,-2.41
2022-12-18T23:08:03.442Z,-2.41
2022-12-18T23:10:31.490Z,-2.40
2022-12-18T23:12:59.355Z,-2.37
2022-12-18T23:15:28.180Z,-2.33
2022-12-18T23:17:58.823Z,-2.38
2022-12-18T23:20:27.675Z,-2.42
2022-12-18T23:22:55.733Z,-2.52
2022-12-18T23:25:24.906Z,-2.53
2022-12-18T23:27:52.909Z,-2.61
2022-12-18T23:30:21.001Z,-2.67
2022-12-18T23:32:49.384Z,-2.69
2022-12-18T23:35:17.469Z,-2.77
2022-12-18T23:37:59.262Z,-2.79
2022-12-18T23:40:29.522Z,-2.78
2022-12-18T23:42:59.719Z,-2.85
2022-12-18T23:45:27.717Z,-2.89
2022-12-18T23:47:55.838Z,-2.89
2022-12-18T23:50:27.747Z,-2.91
2022-12-18T23:53:02.142Z,-2.84
2022-12-18T23:55:41.850Z,-2.89
2022-12-18T23:58:21.406Z,-2.95
